sensor_id;sensor_type;location;lat;lon;timestamp;pressure;altitude;pressure_sealevel;temperature;humidity
75424;BME280;64005;55.160;36.002;2023-01-29T00:01:28;99348.81;;;-1.85;77.74
75424;BME280;64005;55.160;36.002;2023-01-29T00:03:56;99346.75;;;-1.78;77.58
75424;BME280;64005;55.160;36.002;2023-01-29T00:06:24;99351.38;;;-1.79;77.90
75424;BME280;64005;55.160;36.002;2023-01-29T00:08:51;99344.53;;;-1.81;77.92
75424;BME280;64005;55.160;36.002;2023-01-29T00:11:20;99345.53;;;-1.87;77.53
75424;BME280;64005;55.160;36.002;2023-01-29T00:13:48;99342.97;;;-1.94;77.77
75424;BME280;64005;55.160;36.002;2023-01-29T00:16:16;99334.78;;;-1.94;77.64
75424;BME280;64005;55.160;36.002;2023-01-29T00:18:44;99333.72;;;-1.93;77.52
75424;BME280;64005;55.160;36.002;2023-01-29T00:21:13;99345.41;;;-1.92;77.41
75424;BME280;64005;55.160;36.002;2023-01-29T00:23:42;99345.56;;;-1.99;77.53
75424;BME280;64005;55.160;36.002;2023-01-29T00:26:10;99344.41;;;-2.03;77.93
75424;BME280;64005;55.160;36.002;2023-01-29T00:28:40;99335.94;;;-2.07;77.71
75424;BME280;64005;55.160;36.002;2023-01-29T00:31:12;99338.38;;;-2.05;77.80
75424;BME280;64005;55.160;36.002;2023-01-29T00:33:40;99338.13;;;-2.04;77.75
75424;BME280;64005;55.160;36.002;2023-01-29T00:36:11;99324.44;;;-2.09;77.75
75424;BME280;64005;55.160;36.002;2023-01-29T00:38:39;99333.19;;;-2.07;77.67
75424;BME280;64005;55.160;36.002;2023-01-29T00:41:07;99333.19;;;-2.07;77.38
75424;BME280;64005;55.160;36.002;2023-01-29T00:43:54;99345.41;;;-2.09;77.63
75424;BME280;64005;55.160;36.002;2023-01-29T00:46:39;99333.91;;;-2.11;77.66
75424;BME280;64005;55.160;36.002;2023-01-29T00:49:07;99330.38;;;-2.12;77.93
75424;BME280;64005;55.160;36.002;2023-01-29T00:51:36;99334.31;;;-2.19;77.92
75424;BME280;64005;55.160;36.002;2023-01-29T00:54:04;99326.50;;;-2.16;77.93
75424;BME280;64005;55.160;36.002;2023-01-29T00:56:33;99325.34;;;-2.20;77.67
75424;BME280;64005;55.160;36.002;2023-01-29T00:59:03;99319.31;;;-2.22;77.60
75424;BME280;64005;55.160;36.002;2023-01-29T01:01:30;99333.16;;;-2.23;77.52
75424;BME280;64005;55.160;36.002;2023-01-29T01:04:15;99339.13;;;-2.26;77.49
75424;BME280;64005;55.160;36.002;2023-01-29T01:06:42;99339.69;;;-2.24;77.53
75424;BME280;64005;55.160;36.002;2023-01-29T01:09:10;99327.13;;;-2.25;77.66
75424;BME280;64005;55.160;36.002;2023-01-29T01:11:55;99330.69;;;-2.25;77.71
75424;BME280;64005;55.160;36.002;2023-01-29T01:14:24;99329.38;;;-2.22;77.41
75424;BME280;64005;55.160;36.002;2023-01-29T01:16:51;99331.28;;;-2.23;77.48
75424;BME280;64005;55.160;36.002;2023-01-29T01:19:18;99320.69;;;-2.19;77.56
75424;BME280;64005;55.160;36.002;2023-01-29T01:21:46;99318.91;;;-2.14;77.23
75424;BME280;64005;55.160;36.002;2023-01-29T01:24:14;99310.31;;;-2.06;77.23
75424;BME280;64005;55.160;36.002;2023-01-29T01:26:41;99322.38;;;-2.02;77.21
75424;BME280;64005;55.160;36.002;2023-01-29T01:29:09;99314.53;;;-1.98;76.78
75424;BME280;64005;55.160;36.002;2023-01-29T01:31:38;99316.75;;;-1.95;76.98
75424;BME280;64005;55.160;36.002;2023-01-29T01:34:05;99314.88;;;-1.94;77.15
75424;BME280;64005;55.160;36.002;2023-01-29T01:36:33;99306.44;;;-1.93;76.81
75424;BME280;64005;55.160;36.002;2023-01-29T01:39:00;99309.50;;;-1.89;76.74
75424;BME280;64005;55.160;36.002;2023-01-29T01:41:29;99311.91;;;-1.93;76.99
75424;BME280;64005;55.160;36.002;2023-01-29T01:43:58;99318.06;;;-1.97;77.23
75424;BME280;64005;55.160;36.002;2023-01-29T01:46:28;99311.47;;;-2.02;77.10
75424;BME280;64005;55.160;36.002;2023-01-29T01:49:00;99307.69;;;-2.01;77.09
75424;BME280;64005;55.160;36.002;2023-01-29T01:51:31;99308.50;;;-2.00;76.95
75424;BME280;64005;55.160;36.002;2023-01-29T01:54:05;99312.31;;;-2.01;76.72
75424;BME280;64005;55.160;36.002;2023-01-29T01:56:37;99290.81;;;-2.14;77.37
75424;BME280;64005;55.160;36.002;2023-01-29T01:59:09;99306.84;;;-2.01;77.40
75424;BME280;64005;55.160;36.002;2023-01-29T02:01:38;99290.25;;;-1.99;77.20
75424;BME280;64005;55.160;36.002;2023-01-29T02:04:13;99294.88;;;-2.00;77.17
75424;BME280;64005;55.160;36.002;2023-01-29T02:07:00;99290.91;;;-2.09;77.22
75424;BME280;64005;55.160;36.002;2023-01-29T02:09:50;99294.69;;;-2.10;76.95
75424;BME280;64005;55.160;36.002;2023-01-29T02:12:19;99290.91;;;-2.09;76.79
75424;BME280;64005;55.160;36.002;2023-01-29T02:14:47;99282.25;;;-2.06;77.00
75424;BME280;64005;55.160;36.002;2023-01-29T02:17:16;99239.09;;;-2.26;76.68
75424;BME280;64005;55.160;36.002;2023-01-29T02:19:52;99267.50;;;-2.05;76.74
75424;BME280;64005;55.160;36.002;2023-01-29T02:22:40;99222.75;;;-2.26;76.75
75424;BME280;64005;55.160;36.002;2023-01-29T02:25:35;99220.38;;;-2.22;76.81
75424;BME280;64005;55.160;36.002;2023-01-29T02:28:15;99249.63;;;-2.01;76.65
75424;BME280;64005;55.160;36.002;2023-01-29T02:30:52;99244.16;;;-2.01;76.38
75424;BME280;64005;55.160;36.002;2023-01-29T02:33:30;99251.59;;;-1.96;76.88
75424;BME280;64005;55.160;36.002;2023-01-29T02:36:07;99248.53;;;-2.00;76.61
75424;BME280;64005;55.160;36.002;2023-01-29T02:38:44;99239.13;;;-2.09;76.32
75424;BME280;64005;55.160;36.002;2023-01-29T02:41:21;99256.72;;;-2.00;76.83
75424;BME280;64005;55.160;36.002;2023-01-29T02:43:58;99194.47;;;-2.42;77.08
75424;BME280;64005;55.160;36.002;2023-01-29T02:46:30;99238.94;;;-2.03;76.54
75424;BME280;64005;55.160;36.002;2023-01-29T02:49:07;99241.44;;;-2.01;76.72
75424;BME280;64005;55.160;36.002;2023-01-29T02:51:40;99240.03;;;-2.04;77.20
75424;BME280;64005;55.160;36.002;2023-01-29T02:54:15;99147.81;;;-2.62;76.22
75424;BME280;64005;55.160;36.002;2023-01-29T02:56:50;99235.31;;;-2.08;76.95
75424;BME280;64005;55.160;36.002;2023-01-29T02:59:21;99238.06;;;-2.08;76.81
75424;BME280;64005;55.160;36.002;2023-01-29T03:01:54;99215.50;;;-2.20;76.57
75424;BME280;64005;55.160;36.002;2023-01-29T03:04:28;99235.31;;;-2.08;76.60
75424;BME280;64005;55.160;36.002;2023-01-29T03:07:00;99218.38;;;-2.10;76.65
75424;BME280;64005;55.160;36.002;2023-01-29T03:09:32;99232.00;;;-2.10;76.83
75424;BME280;64005;55.160;36.002;2023-01-29T03:12:06;99222.78;;;-2.09;76.77
75424;BME280;64005;55.160;36.002;2023-01-29T03:14:56;99213.75;;;-2.10;76.70
75424;BME280;64005;55.160;36.002;2023-01-29T03:17:46;99209.97;;;-2.09;76.70
75424;BME280;64005;55.160;36.002;2023-01-29T03:20:19;99190.25;;;-2.16;76.86
75424;BME280;64005;55.160;36.002;2023-01-29T03:22:53;99188.59;;;-2.17;76.96
75424;BME280;64005;55.160;36.002;2023-01-29T03:25:27;99133.88;;;-2.49;76.97
75424;BME280;64005;55.160;36.002;2023-01-29T03:28:15;99187.59;;;-2.11;76.89
75424;BME280;64005;55.160;36.002;2023-01-29T03:31:05;99154.03;;;-2.33;76.80
75424;BME280;64005;55.160;36.002;2023-01-29T03:33:58;99177.63;;;-2.22;76.44
75424;BME280;64005;55.160;36.002;2023-01-29T03:36:32;99175.19;;;-2.18;76.81
75424;BME280;64005;55.160;36.002;2023-01-29T03:39:03;99173.88;;;-2.16;77.04
75424;BME280;64005;55.160;36.002;2023-01-29T03:41:33;99166.78;;;-2.17;77.00
75424;BME280;64005;55.160;36.002;2023-01-29T03:44:04;99169.38;;;-2.27;76.78
75424;BME280;64005;55.160;36.002;2023-01-29T03:46:43;99160.38;;;-2.27;76.65
75424;BME280;64005;55.160;36.002;2023-01-29T03:49:20;99157.88;;;-2.29;76.92
75424;BME280;64005;55.160;36.002;2023-01-29T03:51:57;99151.84;;;-2.31;77.09
75424;BME280;64005;55.160;36.002;2023-01-29T03:54:34;99153.25;;;-2.28;76.91
75424;BME280;64005;55.160;36.002;2023-01-29T03:57:09;99145.91;;;-2.28;76.60
75424;BME280;64005;55.160;36.002;2023-01-29T03:59:46;99131.28;;;-2.38;76.69
75424;BME280;64005;55.160;36.002;2023-01-29T04:02:22;99142.84;;;-2.31;76.58
75424;BME280;64005;55.160;36.002;2023-01-29T04:04:58;99143.91;;;-2.32;76.89
75424;BME280;64005;55.160;36.002;2023-01-29T04:07:30;99149.72;;;-2.29;76.97
75424;BME280;64005;55.160;36.002;2023-01-29T04:10:00;99131.56;;;-2.40;76.89
75424;BME280;64005;55.160;36.002;2023-01-29T04:12:35;99127.38;;;-2.48;77.12
75424;BME280;64005;55.160;36.002;2023-01-29T04:15:08;99144.50;;;-2.30;76.82
75424;BME280;64005;55.160;36.002;2023-01-29T04:17:40;99140.72;;;-2.29;76.77
75424;BME280;64005;55.160;36.002;2023-01-29T04:20:09;99145.44;;;-2.42;77.20
75424;BME280;64005;55.160;36.002;2023-01-29T04:22:38;99137.03;;;-2.40;76.93
75424;BME280;64005;55.160;36.002;2023-01-29T04:25:10;99122.31;;;-2.39;76.94
75424;BME280;64005;55.160;36.002;2023-01-29T04:27:46;99123.88;;;-2.43;76.86
75424;BME280;64005;55.160;36.002;2023-01-29T04:30:25;99134.78;;;-2.43;76.94
75424;BME280;64005;55.160;36.002;2023-01-29T04:33:10;99122.31;;;-2.39;76.90
75424;BME280;64005;55.160;36.002;2023-01-29T04:35:52;99082.25;;;-2.60;76.71
75424;BME280;64005;55.160;36.002;2023-01-29T04:38:35;99114.31;;;-2.46;76.89
75424;BME280;64005;55.160;36.002;2023-01-29T04:41:12;99110.59;;;-2.39;76.74
75424;BME280;64005;55.160;36.002;2023-01-29T04:43:46;99114.41;;;-2.41;76.97
75424;BME280;64005;55.160;36.002;2023-01-29T04:46:20;99102.09;;;-2.43;76.87
75424;BME280;64005;55.160;36.002;2023-01-29T04:49:02;99108.06;;;-2.46;76.94
75424;BME280;64005;55.160;36.002;2023-01-29T04:51:44;99106.72;;;-2.44;76.94
75424;BME280;64005;55.160;36.002;2023-01-29T04:54:22;99108.38;;;-2.43;76.81
75424;BME280;64005;55.160;36.002;2023-01-29T04:56:57;99113.50;;;-2.46;76.75
75424;BME280;64005;55.160;36.002;2023-01-29T04:59:31;99115.56;;;-2.53;76.75
75424;BME280;64005;55.160;36.002;2023-01-29T05:02:00;99078.13;;;-2.79;77.27
75424;BME280;64005;55.160;36.002;2023-01-29T05:04:31;99107.63;;;-2.55;76.85
75424;BME280;64005;55.160;36.002;2023-01-29T05:07:02;99118.03;;;-2.52;77.06
75424;BME280;64005;55.160;36.002;2023-01-29T05:09:31;99118.28;;;-2.53;77.04
75424;BME280;64005;55.160;36.002;2023-01-29T05:12:00;99110.03;;;-2.58;77.05
75424;BME280;64005;55.160;36.002;2023-01-29T05:14:29;99116.56;;;-2.59;77.07
75424;BME280;64005;55.160;36.002;2023-01-29T05:17:02;99066.75;;;-2.93;77.11
75424;BME280;64005;55.160;36.002;2023-01-29T05:19:32;99121.19;;;-2.60;77.16
75424;BME280;64005;55.160;36.002;2023-01-29T05:22:03;99119.19;;;-2.64;76.75
75424;BME280;64005;55.160;36.002;2023-01-29T05:24:34;99055.09;;;-3.05;76.70
75424;BME280;64005;55.160;36.002;2023-01-29T05:27:02;99124.22;;;-2.56;76.92
75424;BME280;64005;55.160;36.002;2023-01-29T05:29:47;99123.41;;;-2.57;76.83
75424;BME280;64005;55.160;36.002;2023-01-29T05:32:15;99117.47;;;-2.54;76.73
75424;BME280;64005;55.160;36.002;2023-01-29T05:34:44;99115.81;;;-2.55;77.02
75424;BME280;64005;55.160;36.002;2023-01-29T05:37:11;99119.13;;;-2.53;77.04
75424;BME280;64005;55.160;36.002;2023-01-29T05:39:38;99124.28;;;-2.51;76.90
75424;BME280;64005;55.160;36.002;2023-01-29T05:42:06;99123.22;;;-2.50;76.87
75424;BME280;64005;55.160;36.002;2023-01-29T05:44:34;99131.41;;;-2.50;76.87
75424;BME280;64005;55.160;36.002;2023-01-29T05:47:01;99131.09;;;-2.54;77.22
75424;BME280;64005;55.160;36.002;2023-01-29T05:49:29;99115.63;;;-2.65;76.95
75424;BME280;64005;55.160;36.002;2023-01-29T05:51:58;99126.03;;;-2.62;77.34
75424;BME280;64005;55.160;36.002;2023-01-29T05:54:26;99125.28;;;-2.57;77.06
75424;BME280;64005;55.160;36.002;2023-01-29T05:56:53;99120.44;;;-2.55;77.14
75424;BME280;64005;55.160;36.002;2023-01-29T05:59:20;99122.41;;;-2.51;76.95
75424;BME280;64005;55.160;36.002;2023-01-29T06:01:48;99120.03;;;-2.47;76.95
75424;BME280;64005;55.160;36.002;2023-01-29T06:04:15;99105.88;;;-2.44;76.49
75424;BME280;64005;55.160;36.002;2023-01-29T06:06:43;99109.44;;;-2.44;76.71
75424;BME280;64005;55.160;36.002;2023-01-29T06:09:12;99104.34;;;-2.40;76.50
75424;BME280;64005;55.160;36.002;2023-01-29T06:11:39;99099.38;;;-2.43;77.10
75424;BME280;64005;55.160;36.002;2023-01-29T06:14:07;99095.88;;;-2.38;76.93
75424;BME280;64005;55.160;36.002;2023-01-29T06:16:34;99099.78;;;-2.34;76.66
75424;BME280;64005;55.160;36.002;2023-01-29T06:19:02;99097.72;;;-2.27;76.56
75424;BME280;64005;55.160;36.002;2023-01-29T06:21:30;99100.75;;;-2.24;76.35
75424;BME280;64005;55.160;36.002;2023-01-29T06:23:57;99089.25;;;-2.26;76.39
75424;BME280;64005;55.160;36.002;2023-01-29T06:26:26;99064.13;;;-2.33;76.19
75424;BME280;64005;55.160;36.002;2023-01-29T06:28:54;99088.00;;;-2.18;76.34
75424;BME280;64005;55.160;36.002;2023-01-29T06:31:21;99086.69;;;-2.16;76.17
75424;BME280;64005;55.160;36.002;2023-01-29T06:33:49;99087.28;;;-2.14;76.60
75424;BME280;64005;55.160;36.002;2023-01-29T06:36:16;99077.09;;;-2.18;76.21
75424;BME280;64005;55.160;36.002;2023-01-29T06:38:44;99085.38;;;-2.13;76.38
75424;BME280;64005;55.160;36.002;2023-01-29T06:41:14;99084.03;;;-2.11;76.18
75424;BME280;64005;55.160;36.002;2023-01-29T06:43:44;99070.41;;;-2.11;76.31
75424;BME280;64005;55.160;36.002;2023-01-29T06:46:13;99064.75;;;-2.04;76.48
75424;BME280;64005;55.160;36.002;2023-01-29T06:48:41;99071.03;;;-2.04;76.48
75424;BME280;64005;55.160;36.002;2023-01-29T06:51:09;99067.81;;;-2.01;76.58
75424;BME280;64005;55.160;36.002;2023-01-29T06:53:38;99064.03;;;-1.99;76.13
75424;BME280;64005;55.160;36.002;2023-01-29T06:56:06;99048.66;;;-2.06;76.32
75424;BME280;64005;55.160;36.002;2023-01-29T06:58:35;99058.63;;;-1.94;76.11
75424;BME280;64005;55.160;36.002;2023-01-29T07:01:06;99053.19;;;-1.94;75.88
75424;BME280;64005;55.160;36.002;2023-01-29T07:03:34;99056.16;;;-1.96;76.50
75424;BME280;64005;55.160;36.002;2023-01-29T07:06:01;99062.72;;;-1.92;76.17
75424;BME280;64005;55.160;36.002;2023-01-29T07:08:29;99063.06;;;-1.88;75.77
75424;BME280;64005;55.160;36.002;2023-01-29T07:11:00;99047.84;;;-1.84;75.60
75424;BME280;64005;55.160;36.002;2023-01-29T07:13:28;99047.28;;;-1.86;76.38
75424;BME280;64005;55.160;36.002;2023-01-29T07:15:57;99044.41;;;-1.96;76.10
75424;BME280;64005;55.160;36.002;2023-01-29T07:18:26;99048.16;;;-1.81;76.34
75424;BME280;64005;55.160;36.002;2023-01-29T07:20:54;99048.47;;;-1.77;75.74
75424;BME280;64005;55.160;36.002;2023-01-29T07:23:22;99032.97;;;-1.72;76.20
75424;BME280;64005;55.160;36.002;2023-01-29T07:25:49;99034.13;;;-1.68;75.74
75424;BME280;64005;55.160;36.002;2023-01-29T07:28:17;99032.53;;;-1.64;76.14
75424;BME280;64005;55.160;36.002;2023-01-29T07:30:46;99041.03;;;-1.60;76.19
75424;BME280;64005;55.160;36.002;2023-01-29T07:33:14;99026.66;;;-1.50;75.43
75424;BME280;64005;55.160;36.002;2023-01-29T07:35:43;99026.72;;;-1.45;75.92
75424;BME280;64005;55.160;36.002;2023-01-29T07:38:10;99032.25;;;-1.40;75.69
75424;BME280;64005;55.160;36.002;2023-01-29T07:40:38;99038.00;;;-1.37;75.28
75424;BME280;64005;55.160;36.002;2023-01-29T07:43:08;99038.84;;;-1.31;75.15
75424;BME280;64005;55.160;36.002;2023-01-29T07:45:37;99032.91;;;-1.28;75.10
75424;BME280;64005;55.160;36.002;2023-01-29T07:48:05;99024.97;;;-1.30;75.65
75424;BME280;64005;55.160;36.002;2023-01-29T07:50:34;99028.88;;;-1.21;75.17
75424;BME280;64005;55.160;36.002;2023-01-29T07:53:03;99040.94;;;-1.11;75.08
75424;BME280;64005;55.160;36.002;2023-01-29T07:55:32;99047.25;;;-1.11;75.21
75424;BME280;64005;55.160;36.002;2023-01-29T07:58:01;99010.81;;;-1.27;74.77
75424;BME280;64005;55.160;36.002;2023-01-29T08:00:30;99037.72;;;-1.08;75.19
75424;BME280;64005;55.160;36.002;2023-01-29T08:03:01;99045.22;;;-0.94;74.80
75424;BME280;64005;55.160;36.002;2023-01-29T08:05:30;99037.88;;;-0.88;75.15
75424;BME280;64005;55.160;36.002;2023-01-29T08:07:57;99038.44;;;-0.86;74.33
75424;BME280;64005;55.160;36.002;2023-01-29T08:10:26;99037.91;;;-0.83;74.46
75424;BME280;64005;55.160;36.002;2023-01-29T08:12:55;99036.53;;;-0.86;75.10
75424;BME280;64005;55.160;36.002;2023-01-29T08:15:22;99028.06;;;-0.84;74.70
75424;BME280;64005;55.160;36.002;2023-01-29T08:17:50;99019.91;;;-0.79;74.81
75424;BME280;64005;55.160;36.002;2023-01-29T08:20:19;99033.66;;;-0.69;75.23
75424;BME280;64005;55.160;36.002;2023-01-29T08:22:47;99021.91;;;-0.69;75.00
75424;BME280;64005;55.160;36.002;2023-01-29T08:25:15;99038.31;;;-0.64;74.25
75424;BME280;64005;55.160;36.002;2023-01-29T08:27:44;99026.31;;;-0.63;74.65
75424;BME280;64005;55.160;36.002;2023-01-29T08:30:12;99026.38;;;-0.53;74.05
75424;BME280;64005;55.160;36.002;2023-01-29T08:32:40;99021.25;;;-0.45;74.49
75424;BME280;64005;55.160;36.002;2023-01-29T08:35:08;99032.47;;;-0.41;74.66
75424;BME280;64005;55.160;36.002;2023-01-29T08:37:35;99024.81;;;-0.39;74.34
75424;BME280;64005;55.160;36.002;2023-01-29T08:40:03;99022.41;;;-0.35;73.55
75424;BME280;64005;55.160;36.002;2023-01-29T08:42:31;99019.66;;;-0.41;74.06
75424;BME280;64005;55.160;36.002;2023-01-29T08:45:00;99025.13;;;-0.41;74.87
75424;BME280;64005;55.160;36.002;2023-01-29T08:47:29;99014.69;;;-0.44;74.19
75424;BME280;64005;55.160;36.002;2023-01-29T08:49:56;99015.78;;;-0.45;74.70
75424;BME280;64005;55.160;36.002;2023-01-29T08:52:24;99011.69;;;-0.47;73.96
75424;BME280;64005;55.160;36.002;2023-01-29T08:54:51;99011.94;;;-0.49;74.37
75424;BME280;64005;55.160;36.002;2023-01-29T08:57:18;99010.84;;;-0.48;74.87
75424;BME280;64005;55.160;36.002;2023-01-29T08:59:46;99003.75;;;-0.44;74.85
75424;BME280;64005;55.160;36.002;2023-01-29T09:02:15;99001.09;;;-0.33;74.59
75424;BME280;64005;55.160;36.002;2023-01-29T09:04:42;99001.66;;;-0.26;73.32
75424;BME280;64005;55.160;36.002;2023-01-29T09:07:10;98997.59;;;-0.24;73.79
75424;BME280;64005;55.160;36.002;2023-01-29T09:09:37;99000.03;;;-0.27;73.82
75424;BME280;64005;55.160;36.002;2023-01-29T09:12:05;99001.41;;;-0.25;74.26
75424;BME280;64005;55.160;36.002;2023-01-29T09:14:33;98995.66;;;-0.28;74.59
75424;BME280;64005;55.160;36.002;2023-01-29T09:17:00;99000.56;;;-0.30;74.03
75424;BME280;64005;55.160;36.002;2023-01-29T09:19:29;98995.34;;;-0.37;73.65
75424;BME280;64005;55.160;36.002;2023-01-29T09:21:57;98989.28;;;-0.44;74.75
75424;BME280;64005;55.160;36.002;2023-01-29T09:24:24;98986.81;;;-0.46;73.78
75424;BME280;64005;55.160;36.002;2023-01-29T09:26:52;98986.81;;;-0.46;74.43
75424;BME280;64005;55.160;36.002;2023-01-29T09:29:19;98980.81;;;-0.43;73.71
75424;BME280;64005;55.160;36.002;2023-01-29T09:31:46;98976.75;;;-0.40;74.26
75424;BME280;64005;55.160;36.002;2023-01-29T09:34:14;98981.66;;;-0.37;74.51
75424;BME280;64005;55.160;36.002;2023-01-29T09:36:43;98979.50;;;-0.30;74.39
75424;BME280;64005;55.160;36.002;2023-01-29T09:39:11;98977.88;;;-0.26;73.38
75424;BME280;64005;55.160;36.002;2023-01-29T09:41:49;98972.16;;;-0.29;73.48
75424;BME280;64005;55.160;36.002;2023-01-29T09:44:25;98942.56;;;-0.48;74.07
75424;BME280;64005;55.160;36.002;2023-01-29T09:46:57;98978.69;;;-0.30;73.28
75424;BME280;64005;55.160;36.002;2023-01-29T09:49:29;98977.88;;;-0.31;73.92
75424;BME280;64005;55.160;36.002;2023-01-29T09:52:02;98977.53;;;-0.40;74.33
75424;BME280;64005;55.160;36.002;2023-01-29T09:54:34;98980.81;;;-0.43;74.48
75424;BME280;64005;55.160;36.002;2023-01-29T09:57:03;98972.06;;;-0.40;74.26
75424;BME280;64005;55.160;36.002;2023-01-29T09:59:31;98966.34;;;-0.38;74.07
75424;BME280;64005;55.160;36.002;2023-01-29T10:02:05;98953.25;;;-0.41;73.93
75424;BME280;64005;55.160;36.002;2023-01-29T10:05:02;98953.75;;;-0.44;73.85
75424;BME280;64005;55.160;36.002;2023-01-29T10:07:59;98948.50;;;-0.56;74.85
75424;BME280;64005;55.160;36.002;2023-01-29T10:10:38;98939.78;;;-0.53;74.08
75424;BME280;64005;55.160;36.002;2023-01-29T10:13:16;98894.63;;;-0.65;73.90
75424;BME280;64005;55.160;36.002;2023-01-29T10:15:55;98914.97;;;-0.41;74.49
75424;BME280;64005;55.160;36.002;2023-01-29T10:21:55;98898.34;;;-0.29;74.26
75424;BME280;64005;55.160;36.002;2023-01-29T10:24:35;98873.75;;;-0.19;73.31
75424;BME280;64005;55.160;36.002;2023-01-29T10:27:11;98871.34;;;-0.11;73.12
75424;BME280;64005;55.160;36.002;2023-01-29T10:29:42;98865.88;;;-0.06;73.12
75424;BME280;64005;55.160;36.002;2023-01-29T10:32:14;98871.63;;;0.03;72.84
75424;BME280;64005;55.160;36.002;2023-01-29T10:34:46;98864.56;;;0.12;73.08
75424;BME280;64005;55.160;36.002;2023-01-29T10:37:17;98879.59;;;0.20;73.40
75424;BME280;64005;55.160;36.002;2023-01-29T10:39:47;98866.75;;;0.30;72.68
75424;BME280;64005;55.160;36.002;2023-01-29T10:42:21;98851.13;;;0.21;72.14
75424;BME280;64005;55.160;36.002;2023-01-29T10:45:14;98858.81;;;0.29;73.03
75424;BME280;64005;55.160;36.002;2023-01-29T10:48:07;98874.41;;;0.33;72.90
75424;BME280;64005;55.160;36.002;2023-01-29T10:50:46;98852.25;;;0.30;73.08
75424;BME280;64005;55.160;36.002;2023-01-29T10:53:38;98854.72;;;0.36;72.58
75424;BME280;64005;55.160;36.002;2023-01-29T10:56:32;98844.03;;;0.35;73.10
75424;BME280;64005;55.160;36.002;2023-01-29T10:59:07;98852.53;;;0.38;72.62
75424;BME280;64005;55.160;36.002;2023-01-29T11:01:37;98850.03;;;0.47;72.91
75424;BME280;64005;55.160;36.002;2023-01-29T11:04:08;98834.47;;;0.58;71.65
75424;BME280;64005;55.160;36.002;2023-01-29T11:06:38;98830.91;;;0.57;72.24
75424;BME280;64005;55.160;36.002;2023-01-29T11:09:09;98808.75;;;0.44;71.70
75424;BME280;64005;55.160;36.002;2023-01-29T11:11:46;98823.78;;;0.66;71.54
75424;BME280;64005;55.160;36.002;2023-01-29T11:14:20;98834.44;;;0.78;72.04
75424;BME280;64005;55.160;36.002;2023-01-29T11:16:49;98819.66;;;0.69;72.15
75424;BME280;64005;55.160;36.002;2023-01-29T11:19:17;98819.41;;;0.65;72.00
75424;BME280;64005;55.160;36.002;2023-01-29T11:21:52;98818.31;;;0.56;72.12
75424;BME280;64005;55.160;36.002;2023-01-29T11:24:23;98809.56;;;0.49;71.66
75424;BME280;64005;55.160;36.002;2023-01-29T11:26:54;98817.78;;;0.44;72.40
75424;BME280;64005;55.160;36.002;2023-01-29T11:29:38;98821.31;;;0.34;72.38
75424;BME280;64005;55.160;36.002;2023-01-29T11:32:11;98749.97;;;-0.15;72.82
75424;BME280;64005;55.160;36.002;2023-01-29T11:34:56;98814.22;;;0.23;72.52
75424;BME280;64005;55.160;36.002;2023-01-29T11:37:32;98806.84;;;0.24;72.45
75424;BME280;64005;55.160;36.002;2023-01-29T11:40:00;98796.44;;;0.21;72.37
75424;BME280;64005;55.160;36.002;2023-01-29T11:42:30;98799.72;;;0.23;72.78
75424;BME280;64005;55.160;36.002;2023-01-29T11:44:59;98799.19;;;0.26;72.85
75424;BME280;64005;55.160;36.002;2023-01-29T11:47:28;98783.84;;;0.30;71.93
75424;BME280;64005;55.160;36.002;2023-01-29T11:49:58;98784.97;;;0.24;72.04
75424;BME280;64005;55.160;36.002;2023-01-29T11:52:34;98777.28;;;0.21;71.99
75424;BME280;64005;55.160;36.002;2023-01-29T11:55:05;98780.03;;;0.31;72.41
75424;BME280;64005;55.160;36.002;2023-01-29T11:57:42;98762.25;;;0.18;71.62
75424;BME280;64005;55.160;36.002;2023-01-29T12:00:20;98775.91;;;0.28;72.64
75424;BME280;64005;55.160;36.002;2023-01-29T12:02:52;98779.50;;;0.19;72.15
75424;BME280;64005;55.160;36.002;2023-01-29T12:05:23;98775.38;;;0.16;71.76
75424;BME280;64005;55.160;36.002;2023-01-29T12:07:53;98781.41;;;0.13;72.71
75424;BME280;64005;55.160;36.002;2023-01-29T12:10:32;98737.66;;;-0.22;72.62
75424;BME280;64005;55.160;36.002;2023-01-29T12:13:08;98789.34;;;0.05;72.92
75424;BME280;64005;55.160;36.002;2023-01-29T12:15:45;98789.59;;;0.03;72.48
75424;BME280;64005;55.160;36.002;2023-01-29T12:18:19;98764.72;;;-0.06;72.96
75424;BME280;64005;55.160;36.002;2023-01-29T12:20:53;98784.13;;;0.03;72.90
75424;BME280;64005;55.160;36.002;2023-01-29T12:23:26;98762.00;;;-0.01;72.08
75424;BME280;64005;55.160;36.002;2023-01-29T12:26:01;98771.53;;;0.07;72.66
75424;BME280;64005;55.160;36.002;2023-01-29T12:28:40;98778.41;;;0.05;72.21
75424;BME280;64005;55.160;36.002;2023-01-29T12:31:21;98782.22;;;0.04;72.09
75424;BME280;64005;55.160;36.002;2023-01-29T12:33:54;98783.31;;;-0.08;72.54
75424;BME280;64005;55.160;36.002;2023-01-29T12:36:26;98782.22;;;-0.12;72.53
75424;BME280;64005;55.160;36.002;2023-01-29T12:38:55;98772.91;;;-0.11;72.04
75424;BME280;64005;55.160;36.002;2023-01-29T12:41:29;98767.19;;;-0.09;71.84
75424;BME280;64005;55.160;36.002;2023-01-29T12:44:03;98760.91;;;-0.15;72.63
75424;BME280;64005;55.160;36.002;2023-01-29T12:46:36;98771.53;;;-0.18;73.01
75424;BME280;64005;55.160;36.002;2023-01-29T12:49:11;98733.56;;;-0.40;73.25
75424;BME280;64005;55.160;36.002;2023-01-29T12:51:48;98766.06;;;-0.18;72.28
75424;BME280;64005;55.160;36.002;2023-01-29T12:54:22;98759.78;;;-0.24;72.06
75424;BME280;64005;55.160;36.002;2023-01-29T12:56:58;98743.94;;;-0.27;71.92
75424;BME280;64005;55.160;36.002;2023-01-29T12:59:31;98755.97;;;-0.23;72.11
75424;BME280;64005;55.160;36.002;2023-01-29T13:02:14;98757.63;;;-0.27;73.04
75424;BME280;64005;55.160;36.002;2023-01-29T13:04:49;98751.03;;;-0.31;72.77
75424;BME280;64005;55.160;36.002;2023-01-29T13:07:23;98742.84;;;-0.36;72.58
75424;BME280;64005;55.160;36.002;2023-01-29T13:09:57;98742.28;;;-0.43;72.62
75424;BME280;64005;55.160;36.002;2023-01-29T13:12:30;98757.31;;;-0.35;72.15
75424;BME280;64005;55.160;36.002;2023-01-29T13:15:02;98754.59;;;-0.41;72.46
75424;BME280;64005;55.160;36.002;2023-01-29T13:17:35;98759.75;;;-0.44;72.48
75424;BME280;64005;55.160;36.002;2023-01-29T13:20:04;98756.72;;;-0.58;73.22